Time;durP1;ratioP1;P1;durP2;ratioP2;P2;SDS_P1;SDS_P2;PMS_P1;PMS_P2;Temp;Humidity;BMP_temperature;BMP_pressure;BME280_temperature;BME280_humidity;BME280_pressure;Samples;Min_cycle;Max_cycle;Signal;HPM_P1;HPM_P2
2024/04/21 00:00:54;;;;;;;9.90;1.65;;;7.90;99.90;;;;;;5442537;26;20290;-76
2024/04/21 00:03:20;;;;;;;5.53;1.30;;;7.90;99.90;;;;;;5391227;26;21206;-77
2024/04/21 00:05:46;;;;;;;6.28;1.63;;;8.00;99.90;;;;;;5444973;26;20309;-77
2024/04/21 00:08:12;;;;;;;5.32;1.75;;;8.00;99.90;;;;;;5489988;26;20268;-77
2024/04/21 00:10:38;;;;;;;9.57;1.50;;;8.00;99.90;;;;;;5450610;26;20339;-77
2024/04/21 00:13:04;;;;;;;10.52;2.33;;;8.00;99.90;;;;;;5449064;26;20268;-77
2024/04/21 00:15:31;;;;;;;9.45;3.15;;;8.10;99.90;;;;;;5434928;26;20225;-77
2024/04/21 00:17:57;;;;;;;5.95;1.70;;;8.00;99.90;;;;;;5448969;26;20219;-77
2024/04/21 00:20:23;;;;;;;5.75;1.35;;;8.10;99.90;;;;;;5451160;26;20257;-76
2024/04/21 00:22:51;;;;;;;7.55;1.63;;;8.10;99.90;;;;;;5437017;26;20257;-77
2024/04/21 00:25:17;;;;;;;6.18;1.80;;;8.10;99.90;;;;;;5448837;26;20708;-77
2024/04/21 00:27:43;;;;;;;10.65;1.95;;;8.10;99.90;;;;;;5450924;26;20225;-77
2024/04/21 00:30:11;;;;;;;11.25;2.10;;;8.10;99.90;;;;;;5480901;26;20282;-77
2024/04/21 00:32:38;;;;;;;9.07;1.70;;;8.10;99.90;;;;;;5418838;26;20248;-77
2024/04/21 00:35:04;;;;;;;8.70;1.88;;;8.10;99.90;;;;;;5448276;26;20269;-77
2024/04/21 00:37:30;;;;;;;7.43;1.67;;;8.10;99.90;;;;;;5434676;26;20223;-77
2024/04/21 00:39:56;;;;;;;10.77;1.98;;;8.20;99.90;;;;;;5448991;26;20273;-77
2024/04/21 00:42:22;;;;;;;10.18;2.20;;;8.20;99.90;;;;;;5448495;26;20367;-78
2024/04/21 00:44:49;;;;;;;7.80;1.70;;;8.20;99.90;;;;;;5451042;26;20264;-78
2024/04/21 00:47:15;;;;;;;5.50;1.30;;;8.20;99.90;;;;;;5449895;26;20285;-78
2024/04/21 00:49:42;;;;;;;8.45;1.60;;;8.20;99.90;;;;;;5455393;26;20221;-77
2024/04/21 00:52:09;;;;;;;7.72;1.90;;;8.20;99.90;;;;;;5454222;26;20255;-77
2024/04/21 00:54:35;;;;;;;4.38;1.40;;;8.20;99.90;;;;;;5448173;26;20278;-77
2024/04/21 00:57:01;;;;;;;11.80;2.67;;;8.20;99.90;;;;;;5451963;26;20285;-77
2024/04/21 00:59:29;;;;;;;4.88;1.10;;;8.20;99.90;;;;;;5480534;26;20318;-77
2024/04/21 01:01:56;;;;;;;6.47;1.45;;;8.20;99.90;;;;;;5450338;26;20226;-77
2024/04/21 01:04:23;;;;;;;3.47;1.45;;;8.20;99.90;;;;;;5449889;26;20234;-77
2024/04/21 01:06:49;;;;;;;11.32;2.22;;;8.20;99.90;;;;;;5452924;26;20268;-77
2024/04/21 01:09:15;;;;;;;7.70;2.78;;;8.20;99.90;;;;;;5452842;26;20222;-77
2024/04/21 01:11:50;;;;;;;3.67;1.13;;;8.20;99.90;;;;;;5451325;26;20572;-77
2024/04/21 01:14:17;;;;;;;5.47;1.65;;;8.20;99.90;;;;;;5436322;26;20719;-77
2024/04/21 01:16:43;;;;;;;5.90;1.70;;;8.20;99.90;;;;;;5438474;26;20285;-77
2024/04/21 01:19:09;;;;;;;5.82;1.00;;;8.20;99.90;;;;;;5435628;26;20222;-78
2024/04/21 01:21:35;;;;;;;10.00;1.50;;;8.20;99.90;;;;;;5460804;26;20223;-77
2024/04/21 01:24:01;;;;;;;5.90;1.30;;;8.20;99.90;;;;;;5435900;26;20227;-78
2024/04/21 01:26:28;;;;;;;3.67;1.60;;;8.20;99.90;;;;;;5441940;26;20565;-78
2024/04/21 01:28:54;;;;;;;6.90;1.27;;;8.10;99.90;;;;;;5451819;26;20277;-78
2024/04/21 01:31:20;;;;;;;8.88;1.67;;;8.10;99.90;;;;;;5450082;26;20626;-78
2024/04/21 01:33:46;;;;;;;6.15;1.50;;;8.10;99.90;;;;;;5480719;26;20229;-77
2024/04/21 01:36:12;;;;;;;6.25;1.20;;;8.10;99.90;;;;;;5437011;26;20225;-76
2024/04/21 01:38:39;;;;;;;7.80;1.13;;;8.10;99.90;;;;;;5449118;26;20241;-77
2024/04/21 01:41:05;;;;;;;7.90;1.63;;;8.10;99.90;;;;;;5438619;26;20636;-77
2024/04/21 01:43:31;;;;;;;4.40;1.80;;;8.10;99.90;;;;;;5449826;26;20296;-77
2024/04/21 01:45:57;;;;;;;4.30;1.30;;;8.00;99.90;;;;;;5448409;26;20293;-77
2024/04/21 01:48:23;;;;;;;6.65;1.90;;;8.00;99.90;;;;;;5478379;26;20334;-77
2024/04/21 01:50:50;;;;;;;5.10;1.40;;;8.00;99.90;;;;;;5440198;26;20608;-77
2024/04/21 01:53:17;;;;;;;3.25;1.40;;;7.90;99.90;;;;;;5464983;26;20265;-77
2024/04/21 01:55:43;;;;;;;2.72;0.90;;;7.80;99.90;;;;;;5439196;26;20230;-78
2024/04/21 01:58:09;;;;;;;6.82;1.58;;;7.80;99.90;;;;;;5451950;26;20221;-78
2024/04/21 02:00:35;;;;;;;7.32;1.67;;;7.70;99.90;;;;;;5451205;26;20297;-77
2024/04/21 02:03:02;;;;;;;3.47;1.20;;;7.70;99.90;;;;;;5442575;26;20226;-77
2024/04/21 02:05:28;;;;;;;3.35;1.20;;;7.60;99.90;;;;;;5444454;26;20278;-77
2024/04/21 02:07:54;;;;;;;5.30;1.30;;;7.50;99.90;;;;;;5455068;26;20280;-78
2024/04/21 02:10:21;;;;;;;4.53;1.33;;;7.50;99.90;;;;;;5452509;26;20708;-77
2024/04/21 02:12:47;;;;;;;6.78;1.85;;;7.40;99.90;;;;;;5445675;26;20254;-77
2024/04/21 02:15:13;;;;;;;4.80;1.00;;;7.40;99.90;;;;;;5450095;26;20599;-77
2024/04/21 02:17:39;;;;;;;7.30;1.60;;;7.40;99.90;;;;;;5385263;26;20287;-77
2024/04/21 02:20:06;;;;;;;5.15;1.75;;;7.40;99.90;;;;;;5452069;26;20633;-77
2024/04/21 02:22:32;;;;;;;4.40;1.20;;;7.40;99.90;;;;;;5457077;26;20218;-76
2024/04/21 02:24:59;;;;;;;3.65;0.95;;;7.30;99.90;;;;;;5451327;26;20226;-76
2024/04/21 02:27:25;;;;;;;3.58;1.13;;;7.20;99.90;;;;;;5450566;26;20256;-76
2024/04/21 02:29:51;;;;;;;5.45;1.60;;;7.00;99.90;;;;;;5440536;26;20624;-76
2024/04/21 02:32:17;;;;;;;3.17;0.90;;;6.80;99.90;;;;;;5452086;26;20264;-76
2024/04/21 02:34:43;;;;;;;2.45;0.90;;;6.70;99.90;;;;;;5451257;26;20268;-76
2024/04/21 02:37:09;;;;;;;3.65;1.00;;;6.40;99.90;;;;;;5452115;26;20277;-76
2024/04/21 02:39:36;;;;;;;2.40;0.80;;;6.20;99.90;;;;;;5480663;26;20563;-76
2024/04/21 02:42:02;;;;;;;2.25;0.80;;;6.00;99.90;;;;;;5451048;26;20221;-76
2024/04/21 02:44:28;;;;;;;1.60;0.70;;;5.80;99.90;;;;;;5445369;26;20342;-76
2024/04/21 02:46:54;;;;;;;6.15;2.35;;;5.70;99.90;;;;;;5436927;26;20287;-76
2024/04/21 02:49:20;;;;;;;3.13;1.10;;;5.60;99.90;;;;;;5480491;26;20221;-76
2024/04/21 02:51:46;;;;;;;2.20;0.82;;;5.50;99.90;;;;;;5451045;26;20290;-76
2024/04/21 02:54:12;;;;;;;1.50;0.80;;;5.40;99.90;;;;;;5443027;26;20298;-77
2024/04/21 02:56:39;;;;;;;2.42;0.85;;;5.30;99.90;;;;;;5451686;26;20277;-77
2024/04/21 02:59:05;;;;;;;1.75;0.85;;;5.20;99.90;;;;;;5450990;26;20230;-77
2024/04/21 03:01:31;;;;;;;2.00;0.80;;;5.20;99.90;;;;;;5474581;26;20222;-77
2024/04/21 03:03:57;;;;;;;3.50;0.82;;;5.10;99.90;;;;;;5452174;26;20616;-76
2024/04/21 03:06:24;;;;;;;1.65;0.60;;;5.10;99.90;;;;;;5457871;26;20753;-77
2024/04/21 03:08:50;;;;;;;2.40;0.80;;;5.00;99.90;;;;;;5452225;26;20265;-76
2024/04/21 03:11:16;;;;;;;2.15;0.80;;;5.00;99.90;;;;;;5452787;26;20732;-77
2024/04/21 03:13:42;;;;;;;2.20;0.70;;;4.90;99.90;;;;;;5450708;26;20265;-77
2024/04/21 03:16:08;;;;;;;5.97;1.35;;;4.90;99.90;;;;;;5445299;26;20239;-77
2024/04/21 03:18:35;;;;;;;2.55;0.95;;;4.80;99.90;;;;;;5431457;26;20584;-76
2024/04/21 03:21:01;;;;;;;4.00;0.80;;;4.80;99.90;;;;;;5451459;26;20222;-76
2024/04/21 03:23:27;;;;;;;4.68;0.95;;;4.80;99.90;;;;;;5445721;26;20282;-77
2024/04/21 03:25:53;;;;;;;5.63;0.70;;;4.70;99.90;;;;;;5450047;26;20311;-76
2024/04/21 03:28:19;;;;;;;1.90;0.80;;;4.70;99.90;;;;;;5450987;26;20301;-76
2024/04/21 03:30:59;;;;;;;2.88;0.90;;;4.70;99.90;;;;;;5449646;26;20222;-77
2024/04/21 03:33:25;;;;;;;4.75;1.38;;;4.70;99.90;;;;;;5479981;26;20249;-77
2024/04/21 03:36:07;;;;;;;4.43;0.80;;;4.70;99.90;;;;;;5464439;26;20237;-77
2024/04/21 03:38:35;;;;;;;2.90;1.45;;;4.60;99.90;;;;;;5430424;26;20299;-77
2024/04/21 03:41:01;;;;;;;2.05;0.80;;;4.60;99.90;;;;;;5448322;26;20229;-77
2024/04/21 03:43:28;;;;;;;2.55;0.70;;;4.60;99.90;;;;;;5479705;26;20276;-77
2024/04/21 03:45:55;;;;;;;5.72;0.95;;;4.60;99.90;;;;;;5450224;26;20575;-76
2024/04/21 03:48:22;;;;;;;2.70;0.73;;;4.60;99.90;;;;;;5450883;26;20615;-76
2024/04/21 03:50:49;;;;;;;4.97;1.38;;;4.60;99.90;;;;;;5444257;26;20230;-76
2024/04/21 03:53:16;;;;;;;3.97;0.73;;;4.60;99.90;;;;;;5451050;26;20752;-76
2024/04/21 03:55:43;;;;;;;3.25;0.88;;;4.60;99.90;;;;;;5478653;26;20277;-76
2024/04/21 03:58:10;;;;;;;5.32;1.17;;;4.60;99.90;;;;;;5449962;26;20275;-76
2024/04/21 04:00:36;;;;;;;2.05;0.70;;;4.60;99.90;;;;;;5440973;26;20261;-76
2024/04/21 04:03:02;;;;;;;3.53;0.80;;;4.60;99.90;;;;;;5428564;26;20218;-76
2024/04/21 04:05:28;;;;;;;2.67;0.70;;;4.60;99.90;;;;;;5469502;26;20277;-77
2024/04/21 04:07:54;;;;;;;2.58;0.80;;;4.60;99.90;;;;;;5450624;26;20280;-77
2024/04/21 04:10:20;;;;;;;1.40;0.70;;;4.60;99.90;;;;;;5479042;26;20269;-75
2024/04/21 04:12:46;;;;;;;2.95;0.82;;;4.50;99.90;;;;;;5441269;26;20633;-76
2024/04/21 04:15:12;;;;;;;2.00;0.90;;;4.50;99.90;;;;;;5452669;26;20285;-76
2024/04/21 04:17:39;;;;;;;2.65;0.70;;;4.50;99.90;;;;;;5459407;26;20281;-76
2024/04/21 04:20:12;;;;;;;3.15;0.70;;;4.50;99.90;;;;;;5448596;26;20225;-77
2024/04/21 04:22:38;;;;;;;4.25;0.90;;;4.50;99.90;;;;;;5448700;26;20222;-76
2024/04/21 04:25:05;;;;;;;6.50;0.75;;;4.50;99.90;;;;;;5449577;26;20238;-76
2024/04/21 04:27:31;;;;;;;2.70;0.95;;;4.50;99.90;;;;;;5450419;26;20225;-76
2024/04/21 04:29:58;;;;;;;3.25;0.70;;;4.60;99.90;;;;;;5450265;26;20273;-76
2024/04/21 04:32:24;;;;;;;3.13;0.90;;;4.50;99.90;;;;;;5452042;26;20226;-77
2024/04/21 04:34:51;;;;;;;6.45;1.15;;;4.60;99.90;;;;;;5449620;26;21047;-76
2024/04/21 04:37:18;;;;;;;2.85;0.80;;;4.50;99.90;;;;;;5449008;26;20272;-77
2024/04/21 04:39:44;;;;;;;3.15;0.85;;;4.60;99.90;;;;;;5461806;26;20308;-77
2024/04/21 04:42:10;;;;;;;4.78;0.90;;;4.60;99.90;;;;;;5448765;26;20700;-76
2024/04/21 04:44:36;;;;;;;5.78;0.80;;;4.70;99.90;;;;;;5449827;26;20281;-76
2024/04/21 04:47:02;;;;;;;3.42;1.10;;;4.70;99.90;;;;;;5450049;26;20230;-75
2024/04/21 04:49:28;;;;;;;3.22;0.98;;;4.80;99.90;;;;;;5450166;26;20752;-76
2024/04/21 04:51:55;;;;;;;2.40;0.70;;;4.90;99.90;;;;;;5478793;26;20304;-76
2024/04/21 04:54:21;;;;;;;6.60;2.20;;;5.00;99.90;;;;;;5441656;26;20301;-77
2024/04/21 04:56:47;;;;;;;2.53;0.90;;;5.00;99.90;;;;;;5455461;26;20229;-76
2024/04/21 04:59:13;;;;;;;3.88;1.00;;;5.10;99.90;;;;;;5448260;26;20713;-76
2024/04/21 05:01:39;;;;;;;3.97;1.00;;;5.20;99.90;;;;;;5452744;26;20266;-78
2024/04/21 05:04:05;;;;;;;2.92;1.00;;;5.30;99.90;;;;;;5453508;26;20222;-78
2024/04/21 05:06:33;;;;;;;4.20;1.13;;;5.40;99.90;;;;;;5447714;26;20227;-78
2024/04/21 05:08:59;;;;;;;1.90;0.80;;;5.40;99.90;;;;;;5431534;26;20229;-78
2024/04/21 05:11:25;;;;;;;3.03;0.95;;;5.50;99.90;;;;;;5450058;26;20720;-78
2024/04/21 05:13:51;;;;;;;1.90;0.90;;;5.60;99.90;;;;;;5449704;26;20276;-78
2024/04/21 05:16:17;;;;;;;2.78;0.95;;;5.60;99.90;;;;;;5448820;26;20289;-77
2024/04/21 05:18:43;;;;;;;3.40;0.80;;;5.70;99.90;;;;;;5457106;26;20284;-77
2024/04/21 05:21:10;;;;;;;1.80;0.82;;;5.80;99.90;;;;;;5451348;26;20284;-77
2024/04/21 05:23:37;;;;;;;3.55;0.80;;;5.80;99.90;;;;;;5452197;26;20785;-77
2024/04/21 05:26:03;;;;;;;5.18;1.10;;;5.90;99.90;;;;;;5481034;26;20334;-77
2024/04/21 05:28:29;;;;;;;5.50;1.40;;;6.00;99.90;;;;;;5486109;26;20260;-77
2024/04/21 05:30:55;;;;;;;4.90;1.20;;;6.10;99.90;;;;;;5458720;26;21168;-77
2024/04/21 05:33:21;;;;;;;2.25;0.70;;;6.20;99.90;;;;;;5453011;26;20294;-77
2024/04/21 05:35:47;;;;;;;6.03;0.93;;;6.20;99.90;;;;;;5452777;26;20653;-77
2024/04/21 05:38:13;;;;;;;2.67;1.52;;;6.30;99.90;;;;;;5455013;26;20230;-77
2024/04/21 05:40:40;;;;;;;3.42;0.90;;;6.40;99.90;;;;;;5445235;26;20285;-77
2024/04/21 05:43:06;;;;;;;3.00;0.80;;;6.40;99.90;;;;;;5452727;26;20226;-78
2024/04/21 05:45:32;;;;;;;4.00;1.17;;;6.40;99.90;;;;;;5465809;26;20283;-77
2024/04/21 05:47:58;;;;;;;4.82;0.88;;;6.50;99.90;;;;;;5457866;26;20696;-78
2024/04/21 05:50:24;;;;;;;6.20;1.73;;;6.50;99.90;;;;;;5452830;26;20221;-79
2024/04/21 05:52:50;;;;;;;3.30;0.95;;;6.60;99.90;;;;;;5489597;26;20577;-78
2024/04/21 05:55:16;;;;;;;3.67;0.90;;;6.60;99.90;;;;;;5448135;26;20230;-78
2024/04/21 05:57:42;;;;;;;3.25;1.00;;;6.60;99.90;;;;;;5449091;26;20286;-78
2024/04/21 06:00:08;;;;;;;2.50;0.90;;;6.70;99.90;;;;;;5449694;26;20221;-78
2024/04/21 06:02:35;;;;;;;6.70;0.98;;;6.70;99.90;;;;;;5446517;26;20640;-78
2024/04/21 06:05:04;;;;;;;2.63;0.90;;;6.70;99.90;;;;;;5440959;26;20225;-77
2024/04/21 06:07:30;;;;;;;6.80;1.60;;;6.70;99.90;;;;;;5452436;26;20293;-77
2024/04/21 06:09:58;;;;;;;3.33;1.00;;;6.70;99.90;;;;;;5452567;26;20217;-77
2024/04/21 06:12:24;;;;;;;4.88;0.90;;;6.70;99.90;;;;;;5452326;26;20222;-77
2024/04/21 06:14:50;;;;;;;2.28;1.00;;;6.90;99.90;;;;;;5451708;26;20229;-77
2024/04/21 06:17:16;;;;;;;2.17;0.80;;;7.00;99.90;;;;;;5452099;26;20309;-77
2024/04/21 06:19:42;;;;;;;4.25;1.17;;;7.20;99.90;;;;;;5451673;26;20226;-77
2024/04/21 06:22:14;;;;;;;2.40;1.25;;;7.40;99.90;;;;;;5451871;26;20293;-77
2024/04/21 06:24:40;;;;;;;4.93;1.10;;;7.50;99.90;;;;;;5452367;26;20599;-77
2024/04/21 06:27:06;;;;;;;1.75;1.02;;;7.80;99.90;;;;;;5480804;26;20285;-77
2024/04/21 06:29:32;;;;;;;3.53;1.15;;;8.00;99.90;;;;;;5475401;26;20268;-78
2024/04/21 06:31:58;;;;;;;3.03;0.98;;;8.10;99.90;;;;;;5468222;26;20302;-79
2024/04/21 06:34:24;;;;;;;2.80;1.35;;;8.20;99.90;;;;;;5453912;26;20577;-79
2024/04/21 06:36:51;;;;;;;7.65;1.20;;;8.30;99.90;;;;;;5445531;26;20227;-79
2024/04/21 06:39:17;;;;;;;7.13;1.10;;;8.50;99.90;;;;;;5432833;26;20230;-80
2024/04/21 06:41:43;;;;;;;4.35;1.10;;;9.00;99.90;;;;;;5431944;26;20759;-79
2024/04/21 06:44:09;;;;;;;6.10;1.20;;;9.60;99.90;;;;;;5448276;26;20289;-79
2024/04/21 06:46:35;;;;;;;3.92;1.23;;;10.40;99.90;;;;;;5490728;26;20264;-80
2024/04/21 06:49:02;;;;;;;5.27;1.60;;;11.20;99.90;;;;;;5457464;26;20578;-80
2024/04/21 06:51:28;;;;;;;7.30;1.40;;;11.80;99.90;;;;;;5439512;26;21030;-80
2024/04/21 06:53:54;;;;;;;5.68;1.80;;;12.10;99.90;;;;;;5440371;26;20222;-79
2024/04/21 06:56:20;;;;;;;5.90;1.45;;;12.10;99.90;;;;;;5451559;26;20268;-79
2024/04/21 06:58:47;;;;;;;2.83;0.95;;;12.00;99.90;;;;;;5438047;26;20298;-79
2024/04/21 07:01:13;;;;;;;5.13;1.23;;;11.90;99.90;;;;;;5442663;26;20317;-80
2024/04/21 07:03:39;;;;;;;5.10;1.70;;;11.60;99.90;;;;;;5431217;26;20765;-80
2024/04/21 07:06:05;;;;;;;5.35;1.60;;;11.30;99.90;;;;;;5430367;26;20234;-79
2024/04/21 07:08:31;;;;;;;4.68;1.60;;;11.10;99.90;;;;;;5435721;26;20223;-80
2024/04/21 07:10:57;;;;;;;6.63;1.80;;;10.80;99.90;;;;;;5448016;26;20221;-79
2024/04/21 07:13:23;;;;;;;5.05;1.65;;;10.60;99.90;;;;;;5431243;26;20290;-80
2024/04/21 07:15:49;;;;;;;7.43;2.22;;;10.50;99.90;;;;;;5440747;26;20300;-79
2024/04/21 07:18:16;;;;;;;6.10;2.53;;;10.30;99.90;;;;;;5437747;26;20233;-79
2024/04/21 07:20:42;;;;;;;6.22;2.35;;;10.10;99.90;;;;;;5438641;26;20241;-79
2024/04/21 07:23:08;;;;;;;7.30;2.28;;;10.00;99.90;;;;;;5432121;26;20231;-79
2024/04/21 07:25:34;;;;;;;4.72;1.95;;;9.80;99.90;;;;;;5426998;26;20359;-79
2024/04/21 07:28:00;;;;;;;5.75;2.35;;;9.70;99.90;;;;;;5439719;26;20763;-79
2024/04/21 07:30:27;;;;;;;6.28;2.55;;;9.70;99.90;;;;;;5432529;26;20605;-79
2024/04/21 07:32:54;;;;;;;6.63;2.40;;;9.60;99.90;;;;;;5443802;26;20223;-80
2024/04/21 07:35:21;;;;;;;7.18;2.65;;;9.60;99.90;;;;;;5401729;26;20280;-79
2024/04/21 07:37:47;;;;;;;5.30;2.20;;;9.70;99.90;;;;;;5435344;26;20584;-79
2024/04/21 07:40:14;;;;;;;7.03;2.97;;;9.90;99.90;;;;;;5468738;26;20299;-80
2024/04/21 07:42:41;;;;;;;6.18;2.90;;;10.00;99.90;;;;;;5435037;26;21265;-79
2024/04/21 07:45:07;;;;;;;6.25;2.58;;;10.10;99.90;;;;;;5436489;26;20270;-79
2024/04/21 07:47:33;;;;;;;5.13;2.60;;;10.30;99.90;;;;;;5437401;26;20749;-79
2024/04/21 07:49:59;;;;;;;4.30;2.25;;;10.40;99.90;;;;;;5433483;26;20230;-79
2024/04/21 07:52:25;;;;;;;6.80;2.75;;;10.30;99.90;;;;;;5397627;26;20238;-79
2024/04/21 07:54:51;;;;;;;8.77;3.25;;;10.30;99.90;;;;;;5433156;26;20290;-79
2024/04/21 07:57:17;;;;;;;7.47;2.75;;;10.20;99.90;;;;;;5466861;26;20809;-80
2024/04/21 07:59:43;;;;;;;6.20;2.47;;;10.10;99.90;;;;;;5432731;26;20289;-80
2024/04/21 08:02:10;;;;;;;4.28;2.50;;;10.00;99.90;;;;;;5403260;26;20234;-79
2024/04/21 08:04:36;;;;;;;8.25;2.40;;;9.90;99.90;;;;;;5430189;26;20368;-80
2024/04/21 08:07:03;;;;;;;6.25;2.10;;;9.80;99.90;;;;;;5434840;26;20218;-80
2024/04/21 08:09:29;;;;;;;6.78;2.05;;;9.70;99.90;;;;;;5435875;26;20642;-80
2024/04/21 08:11:56;;;;;;;4.30;1.80;;;9.60;99.90;;;;;;5404523;26;20252;-80
2024/04/21 08:14:22;;;;;;;5.47;2.03;;;9.40;99.90;;;;;;5430202;26;20289;-79
2024/04/21 08:16:48;;;;;;;4.75;1.50;;;9.30;99.90;;;;;;5455698;26;20265;-80
2024/04/21 08:19:14;;;;;;;5.95;1.95;;;9.20;99.90;;;;;;5431272;26;20294;-79
2024/04/21 08:21:40;;;;;;;3.78;2.20;;;9.20;99.90;;;;;;5403140;26;20234;-79
2024/04/21 08:24:07;;;;;;;7.00;1.77;;;9.10;99.90;;;;;;5458873;26;20231;-80
2024/04/21 08:26:33;;;;;;;3.95;1.30;;;9.10;99.90;;;;;;5432391;26;20934;-79
2024/04/21 08:28:59;;;;;;;5.57;1.90;;;9.00;99.90;;;;;;5436101;26;20235;-79
2024/04/21 08:31:25;;;;;;;3.38;1.67;;;9.00;99.90;;;;;;5431158;26;20265;-79
2024/04/21 08:33:51;;;;;;;4.95;1.80;;;8.90;99.90;;;;;;5430204;26;20367;-79
2024/04/21 08:36:17;;;;;;;4.50;1.90;;;8.90;99.90;;;;;;5432774;26;20222;-79
2024/04/21 08:38:43;;;;;;;4.25;1.70;;;8.90;99.90;;;;;;5434894;26;20296;-79
2024/04/21 08:41:17;;;;;;;4.78;1.63;;;8.90;99.90;;;;;;5434325;26;20226;-79
2024/04/21 08:43:44;;;;;;;3.97;1.42;;;8.90;99.90;;;;;;5434885;26;20353;-79
2024/04/21 08:46:12;;;;;;;3.67;1.80;;;8.90;99.90;;;;;;5430770;26;20268;-79
2024/04/21 08:48:38;;;;;;;3.67;1.70;;;8.90;99.90;;;;;;5400616;26;20230;-79
2024/04/21 08:51:06;;;;;;;3.55;1.58;;;9.00;99.90;;;;;;5436225;26;20221;-80
2024/04/21 08:53:33;;;;;;;2.88;1.90;;;9.00;99.90;;;;;;5434820;26;20226;-79
2024/04/21 08:56:00;;;;;;;2.15;1.30;;;9.00;99.90;;;;;;5434903;26;20283;-79
2024/04/21 08:58:27;;;;;;;4.03;1.73;;;9.10;99.90;;;;;;5434445;26;20277;-79
2024/04/21 09:00:56;;;;;;;2.75;1.73;;;9.20;99.90;;;;;;5465989;26;20233;-79
2024/04/21 09:03:22;;;;;;;3.42;1.70;;;9.20;99.90;;;;;;5430193;26;20272;-79
2024/04/21 09:05:52;;;;;;;3.10;2.13;;;9.30;99.90;;;;;;5441006;26;20233;-78
2024/04/21 09:08:18;;;;;;;2.83;1.50;;;9.40;99.90;;;;;;5442228;26;20318;-79
2024/04/21 09:10:51;;;;;;;3.67;1.80;;;9.40;99.90;;;;;;5437859;26;20278;-79
2024/04/21 09:13:17;;;;;;;3.20;2.40;;;9.50;99.90;;;;;;5431968;26;20708;-78
2024/04/21 09:15:43;;;;;;;2.80;1.27;;;9.60;99.90;;;;;;5431287;26;20237;-78
2024/04/21 09:18:09;;;;;;;4.43;1.92;;;9.70;99.90;;;;;;5437072;26;20347;-77
2024/04/21 09:20:35;;;;;;;6.22;2.05;;;9.70;99.90;;;;;;5434854;26;20301;-79
2024/04/21 09:23:02;;;;;;;3.55;1.70;;;9.90;99.90;;;;;;5428428;26;20288;-78
2024/04/21 09:25:28;;;;;;;2.80;1.45;;;10.00;99.90;;;;;;5439791;26;20302;-79
2024/04/21 09:27:55;;;;;;;2.28;1.60;;;10.30;99.90;;;;;;5433724;26;20223;-78
2024/04/21 09:30:22;;;;;;;2.90;1.95;;;10.50;99.90;;;;;;5436732;26;20234;-79
2024/04/21 09:32:49;;;;;;;2.95;2.00;;;10.70;99.90;;;;;;5426563;26;20241;-79
2024/04/21 09:35:15;;;;;;;2.35;1.50;;;10.90;99.90;;;;;;5428335;26;20226;-79
2024/04/21 09:37:45;;;;;;;2.70;1.70;;;11.10;99.90;;;;;;5434983;26;20289;-79
2024/04/21 09:40:14;;;;;;;3.03;1.70;;;11.30;99.90;;;;;;5433660;26;20264;-79
2024/04/21 09:42:41;;;;;;;3.08;1.77;;;11.40;99.90;;;;;;5424335;26;20587;-79
2024/04/21 09:45:08;;;;;;;3.10;1.88;;;11.60;99.90;;;;;;5436545;26;20265;-78
2024/04/21 09:47:36;;;;;;;2.22;1.65;;;11.60;99.90;;;;;;5432068;26;20294;-78
2024/04/21 09:50:03;;;;;;;2.35;1.30;;;11.80;99.90;;;;;;5425910;26;20221;-78
2024/04/21 09:52:32;;;;;;;2.77;1.73;;;12.00;99.90;;;;;;5420542;26;20242;-78
2024/04/21 09:54:58;;;;;;;3.10;1.77;;;12.30;99.90;;;;;;5430236;26;20553;-78
2024/04/21 09:57:25;;;;;;;2.63;1.93;;;12.50;99.90;;;;;;5427446;26;20535;-78
2024/04/21 10:00:07;;;;;;;4.70;1.80;;;12.70;99.90;;;;;;5429458;26;20604;-78
2024/04/21 10:02:37;;;;;;;4.00;1.70;;;12.80;99.90;;;;;;5428339;26;20525;-78
2024/04/21 10:05:07;;;;;;;2.10;1.35;;;13.00;99.90;;;;;;5425768;26;20615;-78
2024/04/21 10:07:37;;;;;;;2.33;1.57;;;13.30;99.90;;;;;;5445181;26;20230;-78
2024/04/21 10:10:09;;;;;;;2.83;1.60;;;13.50;99.90;;;;;;5431135;26;20541;-78
2024/04/21 10:12:37;;;;;;;2.77;2.20;;;13.70;99.90;;;;;;5442538;26;20525;-78
2024/04/21 10:15:07;;;;;;;2.67;1.40;;;13.90;99.90;;;;;;5435187;26;21039;-78
2024/04/21 10:17:33;;;;;;;1.80;1.40;;;14.50;99.90;;;;;;5436119;26;20622;-78
2024/04/21 10:20:05;;;;;;;3.00;1.53;;;15.00;99.90;;;;;;5431942;26;20589;-78
2024/04/21 10:22:34;;;;;;;2.83;1.87;;;15.70;99.90;;;;;;5436642;26;20533;-79
2024/04/21 10:25:04;;;;;;;2.77;1.33;;;16.80;99.90;;;;;;5434284;26;20631;-79
2024/04/21 10:27:30;;;;;;;2.07;1.33;;;17.80;99.90;;;;;;5433569;26;21381;-79
2024/04/21 10:29:56;;;;;;;2.10;1.40;;;18.70;99.90;;;;;;5440334;26;20591;-79
2024/04/21 10:32:27;;;;;;;2.23;1.23;;;19.30;99.90;;;;;;5436013;26;20527;-79
2024/04/21 10:34:55;;;;;;;2.90;1.30;;;19.70;99.90;;;;;;5434305;26;20599;-79
2024/04/21 10:37:25;;;;;;;2.60;2.00;;;19.80;99.90;;;;;;5435201;26;20965;-79
2024/04/21 10:40:06;;;;;;;2.13;1.40;;;19.40;99.90;;;;;;5401466;26;20524;-79
2024/04/21 10:42:33;;;;;;;2.20;1.37;;;19.20;99.90;;;;;;5433616;26;20499;-78
2024/04/21 10:45:02;;;;;;;2.40;1.50;;;18.60;99.90;;;;;;5435983;26;20906;-78
2024/04/21 10:47:29;;;;;;;2.07;1.43;;;18.10;99.90;;;;;;5439933;26;20600;-79
2024/04/21 10:49:55;;;;;;;4.70;2.47;;;17.70;99.90;;;;;;5460148;26;20600;-78
2024/04/21 10:52:22;;;;;;;2.00;1.43;;;17.20;99.90;;;;;;5432218;26;20585;-78
2024/04/21 10:54:48;;;;;;;2.13;1.30;;;16.90;99.90;;;;;;5433951;26;20561;-78
2024/04/21 10:57:15;;;;;;;2.23;1.60;;;16.80;99.90;;;;;;5431497;26;20521;-78
2024/04/21 10:59:42;;;;;;;2.17;1.47;;;16.60;99.90;;;;;;5438150;26;20535;-78
2024/04/21 11:02:08;;;;;;;2.47;1.40;;;16.80;99.20;;;;;;5435932;26;20958;-79
2024/04/21 11:04:36;;;;;;;2.23;1.40;;;17.10;99.90;;;;;;5441451;26;20568;-79
2024/04/21 11:07:02;;;;;;;3.10;1.30;;;17.30;99.90;;;;;;5403230;26;20549;-78
2024/04/21 11:09:28;;;;;;;2.73;1.13;;;17.30;98.60;;;;;;5433863;26;20636;-79
2024/04/21 11:11:55;;;;;;;3.00;1.43;;;17.30;99.90;;;;;;5430976;26;20544;-79
2024/04/21 11:14:21;;;;;;;2.00;1.30;;;17.20;99.90;;;;;;5431639;26;20653;-78
2024/04/21 11:16:54;;;;;;;2.77;1.20;;;17.10;99.90;;;;;;5434508;26;21094;-78
2024/04/21 11:19:21;;;;;;;3.13;1.33;;;16.80;99.90;;;;;;5434488;26;20555;-78
2024/04/21 11:21:48;;;;;;;2.00;1.13;;;16.50;99.90;;;;;;5436141;26;21240;-78
2024/04/21 11:24:14;;;;;;;2.10;1.37;;;16.30;99.90;;;;;;5431619;26;20610;-78
2024/04/21 11:26:42;;;;;;;3.37;1.33;;;16.10;99.90;;;;;;5436569;26;20970;-78
2024/04/21 11:29:08;;;;;;;2.50;1.50;;;16.10;99.90;;;;;;5431446;26;20537;-78
2024/04/21 11:31:35;;;;;;;3.30;1.50;;;16.10;99.90;;;;;;5431667;26;20628;-78
2024/04/21 11:34:02;;;;;;;2.13;1.17;;;15.90;99.90;;;;;;5436235;26;20536;-78
2024/04/21 11:36:29;;;;;;;2.77;1.47;;;15.80;99.90;;;;;;5441491;26;20633;-78
2024/04/21 11:38:56;;;;;;;1.77;1.10;;;15.80;99.90;;;;;;5431953;26;20563;-78
2024/04/21 11:41:22;;;;;;;3.20;1.50;;;15.70;99.90;;;;;;5432223;26;20596;-79
2024/04/21 11:43:55;;;;;;;2.20;1.27;;;15.90;99.90;;;;;;5441195;26;20595;-78
2024/04/21 11:46:21;;;;;;;2.37;1.40;;;16.30;99.90;;;;;;5430945;26;21193;-78
2024/04/21 11:48:52;;;;;;;2.00;1.20;;;16.70;99.90;;;;;;5436254;26;20529;-78
2024/04/21 11:51:19;;;;;;;3.00;1.27;;;17.00;99.90;;;;;;5432320;26;20525;-78
2024/04/21 11:53:46;;;;;;;1.90;0.90;;;17.30;99.90;;;;;;5428465;26;20541;-78
2024/04/21 11:56:12;;;;;;;2.00;1.20;;;17.60;99.90;;;;;;5441085;26;20640;-79
2024/04/21 11:58:38;;;;;;;1.60;0.80;;;17.90;99.90;;;;;;5429386;26;20591;-78
2024/04/21 12:01:05;;;;;;;2.17;0.90;;;18.10;99.90;;;;;;5429196;26;20577;-78
2024/04/21 12:03:32;;;;;;;2.27;0.90;;;18.10;99.90;;;;;;5429136;26;20939;-79
2024/04/21 12:05:58;;;;;;;1.67;1.00;;;18.00;99.90;;;;;;5437931;26;20697;-79
2024/04/21 12:08:24;;;;;;;2.07;1.30;;;18.00;99.90;;;;;;5434094;26;21161;-78
2024/04/21 12:10:50;;;;;;;2.37;0.80;;;18.10;99.90;;;;;;5431468;26;20569;-79
2024/04/21 12:13:16;;;;;;;2.03;1.07;;;18.20;99.90;;;;;;5427538;26;20524;-79
2024/04/21 12:15:42;;;;;;;1.50;0.70;;;18.40;99.90;;;;;;5430673;26;22369;-78
2024/04/21 12:18:09;;;;;;;1.50;0.70;;;18.60;99.90;;;;;;5425544;26;20576;-79
2024/04/21 12:20:36;;;;;;;2.13;0.77;;;18.70;99.90;;;;;;5437471;26;20592;-79
2024/04/21 12:23:07;;;;;;;1.60;0.70;;;18.80;99.30;;;;;;5435646;26;20948;-79
2024/04/21 12:25:34;;;;;;;3.03;0.80;;;18.60;95.40;;;;;;5426877;26;20609;-79
2024/04/21 12:28:00;;;;;;;1.90;0.70;;;18.60;93.30;;;;;;5428172;26;21072;-79
2024/04/21 12:30:27;;;;;;;2.53;0.70;;;18.40;93.80;;;;;;5439673;26;20858;-78
2024/04/21 12:32:53;;;;;;;2.03;0.70;;;17.90;90.50;;;;;;5430665;26;20512;-79
2024/04/21 12:35:20;;;;;;;1.50;0.70;;;17.50;91.70;;;;;;5439271;26;21072;-79
2024/04/21 12:37:46;;;;;;;1.70;0.80;;;17.20;91.60;;;;;;5433972;26;20520;-79
2024/04/21 12:40:12;;;;;;;1.33;0.67;;;16.80;91.20;;;;;;5430636;26;20638;-78
2024/04/21 12:42:38;;;;;;;2.07;0.73;;;16.50;89.50;;;;;;5436012;26;20576;-78
2024/04/21 12:45:05;;;;;;;1.70;0.80;;;16.20;90.00;;;;;;5429833;26;20653;-78
2024/04/21 12:47:32;;;;;;;1.57;0.77;;;15.90;90.50;;;;;;5435040;26;20673;-79
2024/04/21 12:49:58;;;;;;;1.87;0.90;;;15.70;92.50;;;;;;5434584;26;20520;-78